Time;durP1;ratioP1;P1;durP2;ratioP2;P2;SDS_P1;SDS_P2;PMS_P1;PMS_P2;Temp;Humidity;BMP_temperature;BMP_pressure;BME280_temperature;BME280_humidity;BME280_pressure;Samples;Min_cycle;Max_cycle;Signal;HPM_P1;HPM_P2
2021/10/17 00:02:04;;;;;;;27.42;18.70;;;;;;;;;;5004497;28;20085;-72
2021/10/17 00:04:30;;;;;;;26.17;18.58;;;;;;;;;;4998994;28;20437;-72
2021/10/17 00:06:55;;;;;;;27.00;19.90;;;;;;;;;;5000582;28;20105;-71
2021/10/17 00:09:20;;;;;;;25.30;17.58;;;;;;;;;;5001042;28;20167;-71
2021/10/17 00:11:45;;;;;;;27.75;18.60;;;;;;;;;;5006822;28;20469;-71
2021/10/17 00:14:10;;;;;;;29.30;18.52;;;;;;;;;;5000679;28;20035;-73
2021/10/17 00:16:36;;;;;;;27.33;18.35;;;;;;;;;;5002394;28;20030;-73
2021/10/17 00:19:01;;;;;;;29.33;19.25;;;;;;;;;;5003995;28;20034;-73
2021/10/17 00:21:26;;;;;;;26.35;17.98;;;;;;;;;;5000941;28;20690;-71
2021/10/17 00:23:51;;;;;;;26.33;17.90;;;;;;;;;;5001531;28;20038;-72
2021/10/17 00:26:16;;;;;;;24.13;16.52;;;;;;;;;;4999059;28;20109;-73
2021/10/17 00:28:42;;;;;;;25.35;16.95;;;;;;;;;;5001863;28;20029;-72
2021/10/17 00:31:07;;;;;;;28.35;16.95;;;;;;;;;;5006045;28;20104;-73
2021/10/17 00:33:32;;;;;;;28.00;17.75;;;;;;;;;;5000940;28;20055;-72
2021/10/17 00:35:57;;;;;;;23.65;16.63;;;;;;;;;;5007451;28;20432;-72
2021/10/17 00:38:23;;;;;;;23.00;16.25;;;;;;;;;;5000824;28;20026;-71
2021/10/17 00:40:48;;;;;;;26.70;17.55;;;;;;;;;;4999099;28;20034;-73
2021/10/17 00:43:13;;;;;;;25.35;18.08;;;;;;;;;;4994499;28;20449;-72
2021/10/17 00:45:38;;;;;;;24.25;16.33;;;;;;;;;;4995521;28;20469;-72
2021/10/17 00:48:04;;;;;;;24.08;16.65;;;;;;;;;;4996032;28;20093;-71
2021/10/17 00:50:29;;;;;;;23.92;17.13;;;;;;;;;;4997736;28;20018;-71
2021/10/17 00:52:55;;;;;;;26.42;16.73;;;;;;;;;;5009203;28;20053;-71
2021/10/17 00:55:22;;;;;;;25.75;17.55;;;;;;;;;;4995582;28;20504;-72
2021/10/17 00:57:47;;;;;;;25.83;17.15;;;;;;;;;;5005955;28;20033;-71
2021/10/17 01:00:13;;;;;;;24.17;16.35;;;;;;;;;;5006790;28;20080;-71
2021/10/17 01:02:39;;;;;;;22.63;15.82;;;;;;;;;;5005691;28;20060;-71
2021/10/17 01:05:05;;;;;;;23.42;16.20;;;;;;;;;;5009466;28;20497;-72
2021/10/17 01:07:30;;;;;;;22.83;15.23;;;;;;;;;;5001476;28;20030;-72
2021/10/17 01:09:55;;;;;;;23.52;16.10;;;;;;;;;;5003150;28;20033;-72
2021/10/17 01:12:20;;;;;;;22.25;16.08;;;;;;;;;;5000759;28;20366;-71
2021/10/17 01:14:46;;;;;;;25.30;16.67;;;;;;;;;;5000307;28;20018;-72
2021/10/17 01:17:11;;;;;;;23.33;16.23;;;;;;;;;;5000054;28;20046;-72
2021/10/17 01:19:36;;;;;;;21.42;15.23;;;;;;;;;;5004667;28;20022;-72
2021/10/17 01:22:02;;;;;;;22.98;15.13;;;;;;;;;;5004301;28;20029;-72
2021/10/17 01:24:27;;;;;;;21.77;14.98;;;;;;;;;;5001790;28;20033;-72
2021/10/17 01:26:53;;;;;;;22.90;15.45;;;;;;;;;;5002323;28;20034;-71
2021/10/17 01:29:18;;;;;;;19.83;14.10;;;;;;;;;;5001943;28;20127;-71
2021/10/17 01:31:46;;;;;;;22.77;15.27;;;;;;;;;;5003502;28;20449;-71
2021/10/17 01:34:12;;;;;;;21.10;14.05;;;;;;;;;;5002136;28;20041;-70
2021/10/17 01:36:38;;;;;;;23.15;16.45;;;;;;;;;;5004020;28;20072;-72
2021/10/17 01:39:04;;;;;;;22.33;15.82;;;;;;;;;;4996528;28;20027;-72
2021/10/17 01:41:29;;;;;;;23.17;15.35;;;;;;;;;;5007515;28;20674;-72
2021/10/17 01:44:00;;;;;;;23.85;16.42;;;;;;;;;;5005186;28;20021;-71
2021/10/17 01:46:25;;;;;;;23.27;16.10;;;;;;;;;;4999718;28;20037;-72
2021/10/17 01:48:50;;;;;;;24.40;16.55;;;;;;;;;;4997391;28;20018;-73
2021/10/17 01:51:15;;;;;;;26.73;17.98;;;;;;;;;;5008555;28;20104;-72
2021/10/17 01:53:40;;;;;;;26.05;17.17;;;;;;;;;;5004983;28;20029;-71
2021/10/17 01:56:05;;;;;;;24.52;17.30;;;;;;;;;;5007663;28;20033;-71
2021/10/17 01:58:31;;;;;;;26.60;18.17;;;;;;;;;;5008544;28;20053;-72
2021/10/17 02:00:56;;;;;;;27.13;17.60;;;;;;;;;;4999003;28;20049;-72
2021/10/17 02:03:21;;;;;;;25.70;16.92;;;;;;;;;;5001976;28;20030;-71
2021/10/17 02:05:46;;;;;;;25.23;15.73;;;;;;;;;;5001347;28;20017;-71
2021/10/17 02:08:11;;;;;;;24.17;16.75;;;;;;;;;;4994178;28;20053;-71
2021/10/17 02:10:37;;;;;;;23.98;16.23;;;;;;;;;;4996939;28;20037;-71
2021/10/17 02:13:02;;;;;;;23.70;15.82;;;;;;;;;;5005528;28;20053;-72
2021/10/17 02:15:27;;;;;;;22.92;15.65;;;;;;;;;;4998811;28;20069;-71
2021/10/17 02:17:52;;;;;;;20.85;14.90;;;;;;;;;;4995037;28;20042;-71
2021/10/17 02:20:18;;;;;;;21.90;14.73;;;;;;;;;;5007219;28;20025;-71
2021/10/17 02:22:43;;;;;;;22.50;15.90;;;;;;;;;;5004462;28;20038;-72
2021/10/17 02:25:09;;;;;;;23.35;14.75;;;;;;;;;;4998266;28;20032;-73
2021/10/17 02:27:34;;;;;;;20.77;14.55;;;;;;;;;;5004488;28;20125;-72
2021/10/17 02:29:59;;;;;;;24.77;16.30;;;;;;;;;;5003488;28;20033;-73
2021/10/17 02:32:24;;;;;;;19.33;14.27;;;;;;;;;;5002228;28;20037;-72
2021/10/17 02:34:49;;;;;;;23.27;16.30;;;;;;;;;;4999018;28;20037;-71
2021/10/17 02:37:15;;;;;;;22.90;15.75;;;;;;;;;;4996229;28;20781;-71
2021/10/17 02:39:40;;;;;;;21.85;15.10;;;;;;;;;;4991237;28;21454;-70
2021/10/17 02:42:05;;;;;;;24.67;16.52;;;;;;;;;;4993001;28;20061;-71
2021/10/17 02:44:30;;;;;;;21.67;14.75;;;;;;;;;;4995728;28;20034;-70
2021/10/17 02:46:57;;;;;;;22.67;15.30;;;;;;;;;;4994288;28;20088;-72
2021/10/17 02:49:23;;;;;;;21.95;14.75;;;;;;;;;;4999928;28;20069;-71
2021/10/17 02:51:48;;;;;;;22.83;15.32;;;;;;;;;;5004134;28;20038;-71
2021/10/17 02:54:13;;;;;;;24.42;15.75;;;;;;;;;;4995064;28;20034;-71
2021/10/17 02:56:38;;;;;;;23.45;15.77;;;;;;;;;;5001078;28;20378;-72
2021/10/17 02:59:03;;;;;;;21.95;15.20;;;;;;;;;;4996248;28;20061;-71
2021/10/17 03:01:29;;;;;;;23.05;14.68;;;;;;;;;;4995609;28;20053;-70
2021/10/17 03:03:54;;;;;;;21.92;14.60;;;;;;;;;;5002400;28;20121;-70
2021/10/17 03:06:25;;;;;;;21.70;14.55;;;;;;;;;;4993112;28;20030;-71
2021/10/17 03:08:50;;;;;;;24.17;15.27;;;;;;;;;;4995562;28;20026;-70
2021/10/17 03:11:15;;;;;;;24.83;16.00;;;;;;;;;;5003197;28;20099;-71
2021/10/17 03:13:40;;;;;;;25.60;16.15;;;;;;;;;;4994653;28;20122;-71
2021/10/17 03:16:06;;;;;;;23.75;14.75;;;;;;;;;;5000734;28;20030;-71
2021/10/17 03:18:31;;;;;;;22.98;14.82;;;;;;;;;;5002218;28;20452;-72
2021/10/17 03:20:56;;;;;;;22.38;14.13;;;;;;;;;;4993701;28;20018;-71
2021/10/17 03:23:21;;;;;;;20.23;13.73;;;;;;;;;;4992406;28;20026;-70
2021/10/17 03:25:46;;;;;;;20.50;13.65;;;;;;;;;;5000408;28;20025;-71
2021/10/17 03:28:12;;;;;;;22.20;14.95;;;;;;;;;;4999099;28;20030;-73
2021/10/17 03:30:37;;;;;;;23.67;14.20;;;;;;;;;;4997710;28;20027;-71
2021/10/17 03:33:03;;;;;;;22.85;14.52;;;;;;;;;;4999570;28;20525;-71
2021/10/17 03:35:28;;;;;;;22.48;14.18;;;;;;;;;;5003700;28;20464;-71
2021/10/17 03:37:53;;;;;;;21.02;13.90;;;;;;;;;;4996714;28;20145;-72
2021/10/17 03:40:18;;;;;;;20.00;13.25;;;;;;;;;;4993477;28;20030;-70
2021/10/17 03:42:43;;;;;;;20.80;13.48;;;;;;;;;;4996413;28;20430;-71
2021/10/17 03:45:09;;;;;;;21.17;12.95;;;;;;;;;;4993573;28;20054;-70
2021/10/17 03:47:34;;;;;;;19.00;13.05;;;;;;;;;;4992498;28;20532;-72
2021/10/17 03:49:59;;;;;;;19.98;13.73;;;;;;;;;;4999164;28;20082;-71
2021/10/17 03:52:24;;;;;;;20.42;13.23;;;;;;;;;;4989027;28;20026;-71
2021/10/17 03:54:51;;;;;;;19.35;13.00;;;;;;;;;;4991707;28;20388;-71
2021/10/17 03:57:16;;;;;;;19.73;12.02;;;;;;;;;;4999900;28;20804;-71
2021/10/17 03:59:41;;;;;;;19.35;13.07;;;;;;;;;;4996652;28;20034;-71
2021/10/17 04:02:06;;;;;;;17.20;12.10;;;;;;;;;;5000515;28;20053;-71
2021/10/17 04:04:32;;;;;;;17.50;12.25;;;;;;;;;;4997444;28;20010;-71
2021/10/17 04:06:57;;;;;;;18.77;12.48;;;;;;;;;;4999863;28;20192;-72
2021/10/17 04:09:22;;;;;;;19.73;12.57;;;;;;;;;;5004720;28;20465;-72
2021/10/17 04:11:47;;;;;;;19.55;12.75;;;;;;;;;;5000007;28;20029;-71
2021/10/17 04:14:13;;;;;;;18.80;11.95;;;;;;;;;;4997711;28;20010;-71
2021/10/17 04:16:39;;;;;;;16.67;12.02;;;;;;;;;;5004506;28;20104;-70
2021/10/17 04:19:04;;;;;;;19.58;12.30;;;;;;;;;;5004758;28;20026;-70
2021/10/17 04:21:29;;;;;;;18.60;12.25;;;;;;;;;;5007340;28;20014;-71
2021/10/17 04:23:54;;;;;;;17.83;11.73;;;;;;;;;;5000433;28;20502;-70
2021/10/17 04:26:19;;;;;;;19.45;11.48;;;;;;;;;;4997146;28;20033;-71
2021/10/17 04:28:44;;;;;;;17.65;12.18;;;;;;;;;;5000943;28;20022;-71
2021/10/17 04:31:10;;;;;;;20.05;12.23;;;;;;;;;;5000999;28;20034;-71
2021/10/17 04:33:35;;;;;;;17.35;11.80;;;;;;;;;;5002437;28;20067;-72
2021/10/17 04:36:00;;;;;;;19.42;11.75;;;;;;;;;;5003224;28;20084;-72
2021/10/17 04:38:25;;;;;;;16.17;10.38;;;;;;;;;;5001522;28;20082;-70
2021/10/17 04:40:50;;;;;;;15.65;11.38;;;;;;;;;;5003603;28;20030;-72
2021/10/17 04:43:16;;;;;;;16.73;11.60;;;;;;;;;;5003251;28;20018;-73
2021/10/17 04:45:42;;;;;;;16.50;11.00;;;;;;;;;;5005064;28;20027;-72
2021/10/17 04:48:07;;;;;;;17.38;11.23;;;;;;;;;;5003022;28;20048;-71
2021/10/17 04:50:32;;;;;;;17.73;11.05;;;;;;;;;;5006009;28;20034;-72
2021/10/17 04:52:57;;;;;;;16.35;10.88;;;;;;;;;;5005823;28;20599;-72
2021/10/17 04:55:22;;;;;;;16.70;10.32;;;;;;;;;;4995624;28;20116;-72
2021/10/17 04:57:48;;;;;;;14.98;10.73;;;;;;;;;;5005587;28;20129;-71
2021/10/17 05:00:13;;;;;;;16.13;10.30;;;;;;;;;;5005986;28;20053;-71
2021/10/17 05:02:38;;;;;;;14.60;10.20;;;;;;;;;;5007601;28;20061;-73
2021/10/17 05:05:05;;;;;;;15.38;10.00;;;;;;;;;;5002146;28;20030;-71
2021/10/17 05:07:30;;;;;;;16.33;10.32;;;;;;;;;;5006262;28;20018;-71
2021/10/17 05:09:55;;;;;;;16.27;10.38;;;;;;;;;;5004036;28;20029;-72
2021/10/17 05:12:21;;;;;;;15.05;10.30;;;;;;;;;;5008151;28;20058;-71
2021/10/17 05:14:46;;;;;;;15.90;10.45;;;;;;;;;;4993767;28;20032;-73
2021/10/17 05:17:11;;;;;;;14.23;9.30;;;;;;;;;;5003836;28;20132;-72
2021/10/17 05:19:36;;;;;;;15.00;10.48;;;;;;;;;;4998687;28;20030;-72
2021/10/17 05:22:01;;;;;;;13.88;9.57;;;;;;;;;;4996854;28;20046;-72
2021/10/17 05:24:27;;;;;;;16.90;10.60;;;;;;;;;;5004621;28;20378;-71
2021/10/17 05:26:52;;;;;;;14.18;10.05;;;;;;;;;;5005018;28;20026;-72
2021/10/17 05:29:17;;;;;;;16.30;10.13;;;;;;;;;;5016180;28;20046;-72
2021/10/17 05:31:43;;;;;;;15.45;9.75;;;;;;;;;;5006536;28;20164;-71
2021/10/17 05:34:08;;;;;;;14.00;9.60;;;;;;;;;;5006082;28;20397;-74
2021/10/17 05:36:35;;;;;;;16.45;11.25;;;;;;;;;;5004282;28;20119;-72
2021/10/17 05:39:00;;;;;;;14.82;10.48;;;;;;;;;;5002496;28;20160;-71
2021/10/17 05:41:25;;;;;;;15.15;11.10;;;;;;;;;;5009161;28;20480;-70
2021/10/17 05:43:50;;;;;;;14.90;9.70;;;;;;;;;;5004543;28;20507;-72
2021/10/17 05:46:15;;;;;;;15.18;10.35;;;;;;;;;;5003486;28;20026;-71
2021/10/17 05:48:41;;;;;;;14.30;9.57;;;;;;;;;;5004541;28;20136;-71
2021/10/17 05:51:06;;;;;;;13.27;9.63;;;;;;;;;;5003265;28;20027;-70
2021/10/17 05:53:31;;;;;;;13.85;9.23;;;;;;;;;;5001921;28;20091;-74
2021/10/17 05:55:56;;;;;;;14.18;9.60;;;;;;;;;;5006413;28;20029;-71
2021/10/17 05:58:21;;;;;;;14.30;9.35;;;;;;;;;;5003756;28;20042;-75
2021/10/17 06:00:47;;;;;;;12.88;8.80;;;;;;;;;;5002986;28;20062;-74
2021/10/17 06:03:12;;;;;;;15.90;9.43;;;;;;;;;;5004546;28;20095;-72
2021/10/17 06:05:37;;;;;;;13.65;8.88;;;;;;;;;;5006025;28;20032;-71
2021/10/17 06:08:02;;;;;;;13.95;9.10;;;;;;;;;;5006213;28;20037;-72
2021/10/17 06:10:27;;;;;;;13.48;9.07;;;;;;;;;;5003216;28;20497;-73
2021/10/17 06:12:53;;;;;;;11.82;8.65;;;;;;;;;;5001901;28;20036;-72
2021/10/17 06:15:18;;;;;;;14.90;8.20;;;;;;;;;;4992762;28;20034;-71
2021/10/17 06:17:44;;;;;;;12.32;8.25;;;;;;;;;;4996234;28;20057;-73
2021/10/17 06:20:10;;;;;;;15.13;9.23;;;;;;;;;;5006916;28;20029;-73
2021/10/17 06:22:35;;;;;;;13.88;8.38;;;;;;;;;;5005823;28;20501;-72
2021/10/17 06:25:00;;;;;;;13.55;8.85;;;;;;;;;;5002082;28;20026;-73
2021/10/17 06:27:25;;;;;;;14.15;8.35;;;;;;;;;;4998347;28;20030;-71
2021/10/17 06:29:50;;;;;;;17.10;8.93;;;;;;;;;;4996245;28;20034;-71
2021/10/17 06:32:16;;;;;;;12.13;8.48;;;;;;;;;;5002887;28;20354;-72
2021/10/17 06:34:41;;;;;;;12.82;8.98;;;;;;;;;;5006888;28;20026;-71
2021/10/17 06:37:06;;;;;;;12.65;8.55;;;;;;;;;;4996365;28;20034;-72
2021/10/17 06:39:31;;;;;;;13.35;8.80;;;;;;;;;;4996760;28;20093;-73
2021/10/17 06:41:57;;;;;;;13.63;9.02;;;;;;;;;;5001358;28;20533;-71
2021/10/17 06:44:22;;;;;;;12.80;8.32;;;;;;;;;;4995160;28;20042;-72
2021/10/17 06:46:48;;;;;;;15.27;9.30;;;;;;;;;;4996029;28;20022;-71
2021/10/17 06:49:13;;;;;;;14.07;9.38;;;;;;;;;;4995993;28;20771;-71
2021/10/17 06:51:39;;;;;;;16.42;9.50;;;;;;;;;;5000323;28;20026;-71
2021/10/17 06:54:04;;;;;;;14.50;9.18;;;;;;;;;;5002416;28;20386;-71
2021/10/17 06:56:29;;;;;;;15.63;9.55;;;;;;;;;;4995526;28;20101;-71
2021/10/17 06:58:54;;;;;;;12.95;8.80;;;;;;;;;;5001456;28;20041;-72
2021/10/17 07:01:19;;;;;;;13.95;9.65;;;;;;;;;;5003527;28;20053;-72
2021/10/17 07:03:45;;;;;;;13.63;9.13;;;;;;;;;;5003478;28;20382;-72
2021/10/17 07:06:10;;;;;;;12.00;8.65;;;;;;;;;;5006817;28;20616;-72
2021/10/17 07:08:35;;;;;;;15.18;9.65;;;;;;;;;;4999502;28;20045;-74
2021/10/17 07:11:00;;;;;;;12.13;8.95;;;;;;;;;;4999765;28;20041;-71
2021/10/17 07:13:26;;;;;;;12.75;8.52;;;;;;;;;;4994425;28;20025;-74
2021/10/17 07:15:51;;;;;;;13.32;8.60;;;;;;;;;;4993409;28;20030;-74
2021/10/17 07:18:16;;;;;;;11.57;7.80;;;;;;;;;;4994280;28;20032;-72
2021/10/17 07:20:41;;;;;;;12.50;8.05;;;;;;;;;;5001423;28;20018;-74
2021/10/17 07:23:07;;;;;;;10.63;7.78;;;;;;;;;;5001283;28;20048;-72
2021/10/17 07:25:32;;;;;;;10.52;7.60;;;;;;;;;;4998344;28;20061;-61
2021/10/17 07:27:57;;;;;;;10.70;7.55;;;;;;;;;;4996522;28;20097;-61
2021/10/17 07:30:22;;;;;;;11.18;7.80;;;;;;;;;;4998338;28;20030;-63
2021/10/17 07:32:47;;;;;;;13.15;7.95;;;;;;;;;;4996736;28;20133;-60
2021/10/17 07:35:13;;;;;;;11.35;7.53;;;;;;;;;;5005495;28;20073;-61
2021/10/17 07:37:38;;;;;;;9.57;7.63;;;;;;;;;;5000647;28;20092;-61
2021/10/17 07:40:04;;;;;;;9.38;7.13;;;;;;;;;;5008885;28;20164;-61
2021/10/17 07:42:29;;;;;;;10.82;6.40;;;;;;;;;;4996832;28;20065;-61
2021/10/17 07:44:54;;;;;;;8.00;6.15;;;;;;;;;;4995485;28;20514;-59
2021/10/17 07:47:20;;;;;;;10.45;7.00;;;;;;;;;;4999413;28;20022;-60
2021/10/17 07:49:45;;;;;;;9.38;6.82;;;;;;;;;;4993434;28;20026;-61
2021/10/17 07:52:10;;;;;;;9.95;6.78;;;;;;;;;;4996425;28;20097;-60
2021/10/17 07:54:37;;;;;;;9.20;6.60;;;;;;;;;;4998644;28;20028;-61
2021/10/17 07:57:02;;;;;;;9.05;6.65;;;;;;;;;;4995321;28;20373;-61
2021/10/17 07:59:28;;;;;;;11.00;7.82;;;;;;;;;;4999122;28;20037;-60
2021/10/17 08:01:53;;;;;;;8.63;6.32;;;;;;;;;;5005251;28;20057;-59
2021/10/17 08:04:18;;;;;;;10.40;6.32;;;;;;;;;;4992947;28;20112;-60
2021/10/17 08:06:44;;;;;;;8.15;6.28;;;;;;;;;;4994074;28;20025;-62
2021/10/17 08:09:09;;;;;;;8.98;6.72;;;;;;;;;;4998499;28;20023;-61
2021/10/17 08:11:34;;;;;;;8.43;6.50;;;;;;;;;;4993350;28;20091;-61
2021/10/17 08:14:00;;;;;;;9.23;6.75;;;;;;;;;;5002938;28;20133;-61
2021/10/17 08:16:25;;;;;;;10.95;7.55;;;;;;;;;;5000525;28;20112;-62
2021/10/17 08:18:51;;;;;;;11.18;7.47;;;;;;;;;;5009168;28;20378;-60
2021/10/17 08:21:16;;;;;;;11.10;7.10;;;;;;;;;;5001734;28;20489;-61
2021/10/17 08:23:41;;;;;;;11.98;7.82;;;;;;;;;;5004959;28;20038;-59
2021/10/17 08:26:06;;;;;;;11.40;7.50;;;;;;;;;;5004622;28;20029;-61
2021/10/17 08:28:31;;;;;;;10.25;6.95;;;;;;;;;;5003568;28;20026;-60
2021/10/17 08:30:58;;;;;;;9.38;6.72;;;;;;;;;;5005682;28;20047;-60
2021/10/17 08:33:24;;;;;;;9.07;6.78;;;;;;;;;;4998409;28;20024;-61
2021/10/17 08:35:49;;;;;;;9.82;7.30;;;;;;;;;;5001767;28;20544;-59
2021/10/17 08:38:14;;;;;;;10.23;7.50;;;;;;;;;;5002302;28;20030;-59
2021/10/17 08:40:40;;;;;;;12.57;9.23;;;;;;;;;;5001394;28;20022;-61
2021/10/17 08:43:05;;;;;;;15.07;8.85;;;;;;;;;;5000670;28;20121;-60
2021/10/17 08:45:30;;;;;;;12.90;8.60;;;;;;;;;;5004907;28;20032;-59
2021/10/17 08:47:56;;;;;;;11.73;8.30;;;;;;;;;;5001343;28;20097;-60
2021/10/17 08:50:22;;;;;;;12.75;8.82;;;;;;;;;;5010709;28;20022;-60
2021/10/17 08:52:47;;;;;;;12.43;9.07;;;;;;;;;;4997894;28;20100;-60
2021/10/17 08:55:12;;;;;;;17.73;11.50;;;;;;;;;;5006086;28;20662;-60
2021/10/17 08:57:38;;;;;;;16.08;11.13;;;;;;;;;;5001891;28;20133;-60
2021/10/17 09:00:23;;;;;;;16.50;11.48;;;;;;;;;;4997581;28;20053;-59
2021/10/17 09:02:48;;;;;;;15.85;12.00;;;;;;;;;;4994674;28;20047;-59
2021/10/17 09:05:13;;;;;;;16.50;10.82;;;;;;;;;;4999969;28;20398;-60
2021/10/17 09:07:38;;;;;;;16.70;11.90;;;;;;;;;;4991642;28;20034;-59
2021/10/17 09:10:05;;;;;;;18.13;12.60;;;;;;;;;;4999643;28;20109;-61
2021/10/17 09:12:30;;;;;;;19.77;13.45;;;;;;;;;;4996277;28;20312;-60
2021/10/17 09:15:16;;;;;;;19.13;12.80;;;;;;;;;;4998485;28;20022;-61
2021/10/17 09:18:01;;;;;;;20.65;12.93;;;;;;;;;;5001427;28;20046;-60
2021/10/17 09:20:26;;;;;;;16.83;12.55;;;;;;;;;;5009823;28;20049;-61
2021/10/17 09:22:51;;;;;;;19.75;13.05;;;;;;;;;;5006833;28;20062;-61
2021/10/17 09:25:27;;;;;;;19.50;13.40;;;;;;;;;;5002125;28;20482;-62
2021/10/17 09:27:53;;;;;;;18.00;13.20;;;;;;;;;;5005430;28;20389;-60
2021/10/17 09:30:18;;;;;;;20.48;13.38;;;;;;;;;;4992772;28;20045;-63
2021/10/17 09:32:43;;;;;;;21.35;14.80;;;;;;;;;;5000664;28;20026;-60
2021/10/17 09:35:08;;;;;;;19.55;12.32;;;;;;;;;;5007221;28;20018;-60
2021/10/17 09:37:37;;;;;;;17.45;12.77;;;;;;;;;;5000484;28;20038;-61
2021/10/17 09:40:19;;;;;;;22.88;15.52;;;;;;;;;;4996702;28;20933;-61
2021/10/17 09:43:03;;;;;;;22.13;14.73;;;;;;;;;;4993331;28;20030;-60
2021/10/17 09:45:28;;;;;;;24.17;15.68;;;;;;;;;;4998987;28;20025;-60
2021/10/17 09:47:53;;;;;;;24.20;15.18;;;;;;;;;;4999219;28;20107;-61
2021/10/17 09:50:20;;;;;;;21.48;15.07;;;;;;;;;;4993460;28;20027;-60
2021/10/17 09:52:57;;;;;;;22.17;15.07;;;;;;;;;;4994396;28;20057;-60
2021/10/17 09:55:23;;;;;;;21.70;15.55;;;;;;;;;;4994146;28;20498;-60
2021/10/17 09:57:48;;;;;;;23.23;16.70;;;;;;;;;;4993843;28;20046;-62
2021/10/17 10:00:13;;;;;;;21.90;15.40;;;;;;;;;;5005741;28;20049;-60
2021/10/17 10:02:41;;;;;;;24.35;16.08;;;;;;;;;;5000625;28;20093;-61
2021/10/17 10:05:07;;;;;;;22.38;15.45;;;;;;;;;;4998472;28;20030;-61
2021/10/17 10:07:32;;;;;;;23.40;16.52;;;;;;;;;;4999759;28;20136;-60
2021/10/17 10:10:00;;;;;;;27.63;16.38;;;;;;;;;;5001815;28;20146;-63
2021/10/17 10:12:26;;;;;;;21.75;16.17;;;;;;;;;;5005715;28;20029;-60
2021/10/17 10:14:54;;;;;;;25.02;16.80;;;;;;;;;;4994749;28;20096;-60
2021/10/17 10:17:20;;;;;;;23.02;15.95;;;;;;;;;;5000662;28;20030;-59
2021/10/17 10:19:45;;;;;;;26.10;16.63;;;;;;;;;;5003870;28;20049;-61
2021/10/17 10:22:15;;;;;;;24.60;16.35;;;;;;;;;;5002745;28;20060;-60
2021/10/17 10:24:41;;;;;;;23.63;15.90;;;;;;;;;;4999254;28;20024;-60
2021/10/17 10:27:07;;;;;;;22.42;15.07;;;;;;;;;;4997035;28;20037;-61
2021/10/17 10:29:33;;;;;;;22.38;16.15;;;;;;;;;;5002225;28;20014;-60
2021/10/17 10:31:59;;;;;;;21.08;14.40;;;;;;;;;;5003500;28;20490;-60
2021/10/17 10:34:24;;;;;;;25.40;15.45;;;;;;;;;;4994189;28;20027;-59
2021/10/17 10:36:50;;;;;;;23.85;16.27;;;;;;;;;;4998330;28;20033;-61
2021/10/17 10:39:16;;;;;;;23.20;16.48;;;;;;;;;;4996889;28;20285;-60
2021/10/17 10:41:49;;;;;;;24.92;16.20;;;;;;;;;;4996251;28;20397;-61
2021/10/17 10:44:27;;;;;;;22.77;16.20;;;;;;;;;;4997419;28;20639;-60
2021/10/17 10:46:54;;;;;;;25.23;16.15;;;;;;;;;;4990370;28;20084;-60
2021/10/17 10:49:39;;;;;;;24.27;15.50;;;;;;;;;;4996493;28;20421;-60
2021/10/17 10:52:06;;;;;;;24.40;16.42;;;;;;;;;;4997634;28;20053;-59
2021/10/17 10:54:32;;;;;;;24.63;16.77;;;;;;;;;;4993264;28;20073;-60
2021/10/17 10:56:57;;;;;;;22.77;16.02;;;;;;;;;;4996758;28;20499;-60
2021/10/17 10:59:25;;;;;;;21.20;16.23;;;;;;;;;;4992869;28;20026;-59
2021/10/17 11:01:50;;;;;;;22.83;16.38;;;;;;;;;;5007333;28;20025;-63
2021/10/17 11:04:34;;;;;;;21.08;15.38;;;;;;;;;;5003659;28;20038;-60
2021/10/17 11:07:18;;;;;;;26.00;16.55;;;;;;;;;;4997988;28;20289;-59
2021/10/17 11:09:43;;;;;;;24.27;16.63;;;;;;;;;;5004040;28;20026;-61
2021/10/17 11:12:09;;;;;;;21.98;15.40;;;;;;;;;;4999538;28;20393;-60
2021/10/17 11:14:34;;;;;;;21.52;14.93;;;;;;;;;;4998996;28;20026;-59
2021/10/17 11:17:00;;;;;;;21.42;14.65;;;;;;;;;;4992749;28;20022;-60
2021/10/17 11:19:25;;;;;;;21.10;15.50;;;;;;;;;;5004717;28;20029;-60
2021/10/17 11:21:58;;;;;;;21.15;15.30;;;;;;;;;;5003165;28;20537;-60
2021/10/17 11:24:23;;;;;;;22.92;15.43;;;;;;;;;;4998126;28;20027;-59
2021/10/17 11:27:07;;;;;;;20.27;15.13;;;;;;;;;;5005391;28;20090;-59
2021/10/17 11:29:42;;;;;;;19.77;14.23;;;;;;;;;;5002975;28;20029;-61
2021/10/17 11:32:08;;;;;;;20.45;13.82;;;;;;;;;;4999158;28;20113;-59
2021/10/17 11:34:33;;;;;;;20.73;14.68;;;;;;;;;;4990240;28;20109;-60
2021/10/17 11:37:17;;;;;;;18.73;12.82;;;;;;;;;;5001917;28;20480;-60
2021/10/17 11:40:00;;;;;;;23.73;15.38;;;;;;;;;;5007514;28;20027;-60
2021/10/17 11:42:28;;;;;;;21.90;15.27;;;;;;;;;;4996641;28;20021;-60
2021/10/17 11:44:55;;;;;;;22.25;14.48;;;;;;;;;;4999600;28;20392;-61
2021/10/17 11:47:20;;;;;;;18.40;13.73;;;;;;;;;;5001908;28;20117;-59
2021/10/17 11:49:47;;;;;;;20.73;14.02;;;;;;;;;;4996925;28;20101;-59
2021/10/17 11:52:13;;;;;;;23.00;15.60;;;;;;;;;;5000911;28;20073;-59
2021/10/17 11:54:42;;;;;;;21.00;15.27;;;;;;;;;;4996589;28;20426;-59
2021/10/17 11:57:07;;;;;;;20.98;14.75;;;;;;;;;;5000828;28;20030;-60
2021/10/17 11:59:33;;;;;;;20.65;14.10;;;;;;;;;;5006162;28;20129;-60
2021/10/17 12:01:58;;;;;;;20.90;15.48;;;;;;;;;;4997082;28;20039;-62
2021/10/17 12:04:42;;;;;;;21.77;15.98;;;;;;;;;;5001369;28;20393;-60
2021/10/17 12:07:07;;;;;;;21.73;14.70;;;;;;;;;;4997231;28;20034;-60
2021/10/17 12:09:34;;;;;;;19.75;13.88;;;;;;;;;;5002323;28;20022;-61
2021/10/17 12:11:59;;;;;;;19.75;14.63;;;;;;;;;;5000377;28;20026;-59
2021/10/17 12:14:25;;;;;;;20.17;15.10;;;;;;;;;;5000402;28;20026;-59
2021/10/17 12:16:53;;;;;;;19.92;14.50;;;;;;;;;;5002332;28;20010;-60
2021/10/17 12:19:23;;;;;;;19.20;14.70;;;;;;;;;;5002115;28;20033;-61
2021/10/17 12:21:49;;;;;;;23.30;15.95;;;;;;;;;;5006761;28;20034;-60
2021/10/17 12:24:14;;;;;;;19.92;14.35;;;;;;;;;;5000960;28;20014;-59
2021/10/17 12:26:48;;;;;;;17.95;12.90;;;;;;;;;;5000007;28;20116;-61
2021/10/17 12:29:13;;;;;;;21.52;14.93;;;;;;;;;;5007412;28;20061;-61
2021/10/17 12:31:39;;;;;;;18.98;14.07;;;;;;;;;;5005827;28;20101;-60
2021/10/17 12:34:07;;;;;;;19.38;15.23;;;;;;;;;;4993955;28;20022;-60
2021/10/17 12:36:33;;;;;;;24.08;16.20;;;;;;;;;;5002263;28;20108;-59
2021/10/17 12:38:59;;;;;;;20.15;13.93;;;;;;;;;;5010413;28;20494;-59
2021/10/17 12:41:26;;;;;;;19.27;14.70;;;;;;;;;;4998053;28;20103;-60
2021/10/17 12:43:52;;;;;;;20.33;13.70;;;;;;;;;;5002589;28;20422;-60
2021/10/17 12:46:18;;;;;;;17.33;12.95;;;;;;;;;;5004923;28;20022;-60
2021/10/17 12:48:45;;;;;;;20.45;13.55;;;;;;;;;;5003256;28;20424;-60
2021/10/17 12:51:33;;;;;;;20.23;13.43;;;;;;;;;;5008781;28;20507;-60
2021/10/17 12:54:17;;;;;;;17.67;13.77;;;;;;;;;;5004865;28;20113;-61
2021/10/17 12:56:42;;;;;;;15.57;11.88;;;;;;;;;;5007120;28;20038;-60
2021/10/17 12:59:11;;;;;;;17.25;12.85;;;;;;;;;;5010398;28;20458;-61
2021/10/17 13:01:55;;;;;;;17.27;12.55;;;;;;;;;;5007657;28;20046;-60
2021/10/17 13:04:22;;;;;;;18.95;13.95;;;;;;;;;;5004972;28;20046;-60
2021/10/17 13:06:48;;;;;;;22.40;15.55;;;;;;;;;;5006242;28;20116;-61
2021/10/17 13:09:13;;;;;;;17.13;13.15;;;;;;;;;;5008131;28;20032;-60
2021/10/17 13:11:39;;;;;;;16.48;12.70;;;;;;;;;;5006661;28;20078;-60
2021/10/17 13:14:08;;;;;;;18.63;12.60;;;;;;;;;;5008398;28;20048;-61
2021/10/17 13:16:36;;;;;;;19.48;13.65;;;;;;;;;;5011877;28;20028;-61
2021/10/17 13:19:01;;;;;;;17.92;13.43;;;;;;;;;;5011528;28;20810;-60
2021/10/17 13:21:26;;;;;;;20.13;14.05;;;;;;;;;;4989082;28;20041;-60
2021/10/17 13:23:51;;;;;;;22.48;14.75;;;;;;;;;;5005835;28;20088;-60
2021/10/17 13:26:16;;;;;;;19.35;14.85;;;;;;;;;;5007880;28;20057;-60
2021/10/17 13:28:42;;;;;;;21.67;14.98;;;;;;;;;;5006337;28;20026;-60
2021/10/17 13:31:07;;;;;;;22.05;16.00;;;;;;;;;;5012135;28;20096;-60
2021/10/17 13:33:32;;;;;;;19.23;14.17;;;;;;;;;;5001160;28;20029;-60
2021/10/17 13:35:57;;;;;;;20.02;14.27;;;;;;;;;;5000387;28;20351;-60
2021/10/17 13:38:23;;;;;;;20.20;14.77;;;;;;;;;;4994559;28;20046;-60
2021/10/17 13:40:48;;;;;;;18.60;14.55;;;;;;;;;;5006868;28;20284;-60
2021/10/17 13:43:13;;;;;;;19.10;14.00;;;;;;;;;;5000297;28;20115;-59
2021/10/17 13:45:38;;;;;;;19.07;14.23;;;;;;;;;;4998649;28;20282;-60
2021/10/17 13:48:04;;;;;;;16.83;13.00;;;;;;;;;;4995046;28;20269;-61
2021/10/17 13:50:29;;;;;;;15.07;11.95;;;;;;;;;;5004195;28;20061;-60
2021/10/17 13:52:54;;;;;;;14.77;11.75;;;;;;;;;;4994254;28;20030;-60
2021/10/17 13:55:19;;;;;;;17.20;12.57;;;;;;;;;;4993610;28;20026;-59
2021/10/17 13:57:45;;;;;;;18.80;15.02;;;;;;;;;;4992161;28;20309;-62
2021/10/17 14:00:11;;;;;;;21.33;15.00;;;;;;;;;;4993206;28;20038;-60
2021/10/17 14:02:36;;;;;;;18.40;14.82;;;;;;;;;;4995027;28;20029;-61
2021/10/17 14:05:02;;;;;;;18.05;14.13;;;;;;;;;;4992804;28;20018;-60
2021/10/17 14:07:28;;;;;;;16.00;13.50;;;;;;;;;;4993461;28;20054;-58
2021/10/17 14:09:53;;;;;;;16.30;13.95;;;;;;;;;;4995051;28;20060;-60
2021/10/17 14:12:18;;;;;;;17.43;14.13;;;;;;;;;;4998096;28;20025;-59
2021/10/17 14:14:43;;;;;;;17.58;13.80;;;;;;;;;;4993821;28;20837;-61
2021/10/17 14:17:09;;;;;;;20.48;15.68;;;;;;;;;;4991037;28;20465;-59